| time (UTC) | temp C | wind direction | speed KPH | gust KPH | rain 1hr cm | rain 24hr cm | rain mn cm | humidity % | barometer mb |
| 20260505163012 | 13 | 174 | 0.0 | 1.6 | 0.00 | 0.00 | 0.00 | 79 | 1018.3 |
| 20260505162510 | 13 | 181 | 0.0 | 1.6 | 0.00 | 0.00 | 0.00 | 78 | 1018.3 |
| 20260505162013 | 13 | 179 | 0.0 | 3.2 | 0.00 | 0.00 | 0.00 | 78 | 1018.4 |
| 20260505161510 | 13 | 181 | 0.0 | 0.0 | 0.00 | 0.00 | 0.00 | 78 | 1018.4 |
| 20260505161012 | 13 | 178 | 0.0 | 0.0 | 0.00 | 0.00 | 0.00 | 78 | 1018.5 |
| 20260505153012 | 13 | 181 | 0.0 | 0.0 | 0.00 | 0.00 | 0.00 | 79 | 1018.9 |
| 20260505152511 | 13 | 176 | 0.0 | 0.0 | 0.00 | 0.00 | 0.00 | 79 | 1018.9 |
| 20260505152011 | 13 | 173 | 0.0 | 1.6 | 0.00 | 0.00 | 0.00 | 79 | 1018.9 |
| 20260505151511 | 13 | 175 | 0.0 | 3.2 | 0.00 | 0.00 | 0.00 | 80 | 1019.0 |
| 20260505151012 | 13 | 185 | 1.6 | 4.8 | 0.00 | 0.00 | 0.00 | 80 | 1019.0 |
| 20260505150510 | 13 | 181 | 1.6 | 4.8 | 0.00 | 0.00 | 0.00 | 80 | 1019.0 |
| 20260505140511 | 12 | 180 | 0.0 | 1.6 | 0.00 | 0.00 | 0.00 | 80 | 1019.0 |
| 20260505125012 | 13 | 173 | 0.0 | 1.6 | 0.00 | 0.00 | 0.00 | 74 | 1019.3 |
| 20260505124511 | 14 | 173 | 0.0 | 4.8 | 0.00 | 0.00 | 0.00 | 74 | 1019.4 |
| 20260505124012 | 14 | 183 | 1.6 | 8.0 | 0.00 | 0.00 | 0.00 | 74 | 1019.4 |
| 20260505123510 | 14 | 186 | 1.6 | 4.8 | 0.00 | 0.00 | 0.00 | 74 | 1019.5 |
| 20260505123013 | 14 | 188 | 0.0 | 4.8 | 0.00 | 0.00 | 0.00 | 74 | 1019.5 |
| 20260505122510 | 14 | 181 | 1.6 | 4.8 | 0.00 | 0.03 | 0.00 | 74 | 1019.5 |
| 20260505121510 | 14 | 178 | 1.6 | 4.8 | 0.00 | 0.03 | 0.00 | 74 | 1019.5 |
| 20260505121012 | 14 | 179 | 1.6 | 4.8 | 0.00 | 0.03 | 0.00 | 74 | 1019.5 |
| 20260505120511 | 14 | 175 | 1.6 | 8.0 | 0.00 | 0.03 | 0.00 | 74 | 1019.5 |
| 20260505120013 | 14 | 188 | 1.6 | 8.0 | 0.00 | 0.03 | 0.00 | 74 | 1019.6 |
| 20260505115012 | 13 | 192 | 1.6 | 4.8 | 0.00 | 0.03 | 0.00 | 75 | 1019.6 |
| 20260505114011 | 13 | 188 | 1.6 | 8.0 | 0.00 | 0.03 | 0.00 | 76 | 1019.7 |
| 20260505113510 | 13 | 190 | 1.6 | 4.8 | 0.00 | 0.03 | 0.00 | 76 | 1019.7 |
| 20260505113011 | 13 | 191 | 0.0 | 0.0 | 0.00 | 0.05 | 0.00 | 76 | 1019.7 |
| 20260505112510 | 13 | 188 | 0.0 | 3.2 | 0.00 | 0.05 | 0.00 | 76 | 1019.6 |
| 20260505111511 | 13 | 188 | 0.0 | 1.6 | 0.00 | 0.05 | 0.00 | 76 | 1019.6 |
| 20260505111012 | 13 | 196 | 0.0 | 1.6 | 0.00 | 0.05 | 0.00 | 77 | 1019.6 |
| 20260505102012 | 13 | 194 | 0.0 | 1.6 | 0.00 | 0.05 | 0.00 | 76 | 1019.6 |
| 20260505100511 | 13 | 188 | 3.2 | 4.8 | 0.00 | 0.05 | 0.00 | 76 | 1019.6 |
| 20260505100013 | 14 | 191 | 0.0 | 0.0 | 0.00 | 0.05 | 0.00 | 75 | 1019.6 |
| 20260505095511 | 14 | 190 | 0.0 | 0.0 | 0.00 | 0.05 | 0.00 | 75 | 1019.6 |
| 20260505095012 | 14 | 192 | 0.0 | 1.6 | 0.00 | 0.05 | 0.00 | 74 | 1019.7 |
| 20260505094012 | 14 | 188 | 0.0 | 1.6 | 0.00 | 0.05 | 0.00 | 74 | 1019.6 |
| 20260505093511 | 14 | 196 | 1.6 | 3.2 | 0.00 | 0.05 | 0.00 | 73 | 1019.6 |
| 20260505093012 | 14 | 188 | 0.0 | 0.0 | 0.00 | 0.05 | 0.00 | 73 | 1019.6 |
| 20260505092511 | 14 | 196 | 0.0 | 0.0 | 0.00 | 0.05 | 0.00 | 73 | 1019.6 |
| 20260505092012 | 14 | 188 | 0.0 | 0.0 | 0.00 | 0.05 | 0.00 | 73 | 1019.6 |
| 20260505091510 | 14 | 190 | 0.0 | 0.0 | 0.00 | 0.05 | 0.00 | 73 | 1019.6 |
| 20260505091012 | 14 | 194 | 0.0 | 0.0 | 0.00 | 0.05 | 0.00 | 73 | 1019.6 |
| 20260505090511 | 14 | 190 | 0.0 | 0.0 | 0.00 | 0.05 | 0.00 | 73 | 1019.6 |
| 20260505085511 | 14 | 190 | 0.0 | 0.0 | 0.00 | 0.05 | 0.00 | 73 | 1019.5 |
| 20260505085012 | 14 | 193 | 0.0 | 0.0 | 0.00 | 0.05 | 0.00 | 72 | 1019.4 |
| 20260505084511 | 14 | 190 | 0.0 | 0.0 | 0.00 | 0.05 | 0.00 | 72 | 1019.5 |
| 20260505084012 | 15 | 197 | 0.0 | 0.0 | 0.00 | 0.05 | 0.00 | 72 | 1019.4 |
| 20260505083510 | 15 | 189 | 0.0 | 3.2 | 0.00 | 0.05 | 0.00 | 72 | 1019.4 |
| 20260505083011 | 15 | 187 | 0.0 | 0.0 | 0.00 | 0.05 | 0.00 | 71 | 1019.3 |
| 20260505082511 | 15 | 197 | 0.0 | 0.0 | 0.00 | 0.05 | 0.00 | 71 | 1019.2 |
| 20260505082012 | 15 | 188 | 0.0 | 0.0 | 0.00 | 0.05 | 0.00 | 71 | 1019.2 |
| 20260505081510 | 15 | 194 | 1.6 | 3.2 | 0.00 | 0.05 | 0.00 | 71 | 1019.1 |
| 20260505081012 | 15 | 189 | 1.6 | 4.8 | 0.00 | 0.05 | 0.00 | 71 | 1019.0 |
| 20260505080511 | 15 | 189 | 0.0 | 3.2 | 0.00 | 0.05 | 0.00 | 70 | 1019.0 |
| 20260505075012 | 15 | 191 | 1.6 | 4.8 | 0.00 | 0.05 | 0.00 | 70 | 1018.8 |
| 20260505074510 | 15 | 183 | 1.6 | 4.8 | 0.00 | 0.05 | 0.00 | 70 | 1018.7 |
| 20260505074012 | 15 | 166 | 0.0 | 1.6 | 0.00 | 0.05 | 0.00 | 69 | 1018.7 |
| 20260505072510 | 15 | 157 | 1.6 | 4.8 | 0.00 | 0.05 | 0.00 | 68 | 1018.6 |
| 20260505071510 | 15 | 174 | 0.0 | 3.2 | 0.00 | 0.05 | 0.00 | 68 | 1018.5 |
| 20260505071012 | 15 | 168 | 0.0 | 1.6 | 0.00 | 0.05 | 0.00 | 68 | 1018.5 |
| 20260505070510 | 15 | 169 | 0.0 | 3.2 | 0.00 | 0.05 | 0.00 | 68 | 1018.5 |
| 20260505070013 | 15 | 183 | 1.6 | 8.0 | 0.00 | 0.05 | 0.00 | 68 | 1018.4 |
| 20260505065011 | 15 | 160 | 0.0 | 1.6 | 0.00 | 0.05 | 0.00 | 69 | 1018.4 |
| 20260505064510 | 15 | 156 | 0.0 | 3.2 | 0.00 | 0.05 | 0.00 | 69 | 1018.4 |
| 20260505064011 | 15 | 162 | 0.0 | 1.6 | 0.00 | 0.05 | 0.00 | 69 | 1018.4 |
| 20260505063510 | 15 | 154 | 0.0 | 3.2 | 0.00 | 0.05 | 0.00 | 68 | 1018.3 |
| 20260505063012 | 15 | 157 | 0.0 | 4.8 | 0.00 | 0.05 | 0.00 | 68 | 1018.3 |
| 20260505062510 | 15 | 155 | 1.6 | 3.2 | 0.00 | 0.05 | 0.00 | 68 | 1018.2 |
| 20260505061510 | 15 | 154 | 1.6 | 8.0 | 0.00 | 0.05 | 0.00 | 68 | 1018.2 |
| 20260505061011 | 15 | 170 | 1.6 | 4.8 | 0.00 | 0.05 | 0.00 | 68 | 1018.2 |
| 20260505060510 | 15 | 167 | 3.2 | 8.0 | 0.00 | 0.05 | 0.00 | 68 | 1018.2 |
| 20260505055012 | 15 | 163 | 1.6 | 4.8 | 0.00 | 0.05 | 0.00 | 68 | 1018.0 |
| 20260505054510 | 15 | 165 | 1.6 | 8.0 | 0.00 | 0.05 | 0.00 | 68 | 1018.0 |
| 20260505054011 | 15 | 161 | 1.6 | 4.8 | 0.00 | 0.05 | 0.00 | 68 | 1017.9 |
| 20260505053012 | 15 | 163 | 4.8 | 9.7 | 0.00 | 0.05 | 0.00 | 66 | 1017.9 |
| 20260505052510 | 15 | 161 | 4.8 | 11.3 | 0.00 | 0.05 | 0.00 | 66 | 1017.8 |
| 20260505052011 | 15 | 148 | 3.2 | 8.0 | 0.00 | 0.05 | 0.00 | 66 | 1017.7 |
| 20260505051510 | 15 | 161 | 4.8 | 8.0 | 0.00 | 0.05 | 0.00 | 66 | 1017.7 |
| 20260505051011 | 15 | 164 | 4.8 | 11.3 | 0.00 | 0.05 | 0.00 | 66 | 1017.6 |
| 20260505050510 | 15 | 171 | 4.8 | 11.3 | 0.00 | 0.05 | 0.00 | 67 | 1017.5 |
| 20260505041011 | 15 | 180 | 4.8 | 11.3 | 0.00 | 0.05 | 0.00 | 68 | 1017.1 |
| 20260505040510 | 15 | 168 | 4.8 | 8.0 | 0.00 | 0.05 | 0.00 | 69 | 1017.2 |
| 20260505040012 | 15 | 178 | 3.2 | 9.7 | 0.00 | 0.05 | 0.00 | 69 | 1017.1 |
| 20260505035511 | 15 | 159 | 3.2 | 9.7 | 0.00 | 0.05 | 0.00 | 69 | 1017.0 |
| 20260505035011 | 15 | 168 | 6.4 | 11.3 | 0.00 | 0.05 | 0.00 | 69 | 1017.0 |
| 20260505034011 | 15 | 157 | 4.8 | 9.7 | 0.00 | 0.05 | 0.00 | 69 | 1017.0 |
| 20260505033510 | 16 | 155 | 3.2 | 8.0 | 0.00 | 0.05 | 0.00 | 69 | 1017.0 |
| 20260505033012 | 16 | 178 | 6.4 | 14.5 | 0.00 | 0.05 | 0.00 | 68 | 1017.0 |
| 20260505032012 | 16 | 166 | 6.4 | 12.9 | 0.00 | 0.05 | 0.00 | 68 | 1017.0 |
| 20260505031511 | 16 | 167 | 1.6 | 12.9 | 0.00 | 0.05 | 0.00 | 68 | 1017.0 |
| 20260505031011 | 16 | 163 | 6.4 | 11.3 | 0.00 | 0.05 | 0.00 | 68 | 1017.0 |
| 20260505030510 | 16 | 160 | 3.2 | 11.3 | 0.00 | 0.05 | 0.00 | 68 | 1017.0 |
| 20260505030013 | 16 | 166 | 6.4 | 12.9 | 0.00 | 0.05 | 0.00 | 67 | 1017.0 |
| 20260505025011 | 16 | 168 | 8.0 | 16.1 | 0.00 | 0.05 | 0.00 | 65 | 1017.0 |
| 20260505024510 | 17 | 166 | 8.0 | 19.3 | 0.00 | 0.05 | 0.00 | 66 | 1017.0 |
| 20260505024013 | 17 | 153 | 8.0 | 16.1 | 0.00 | 0.05 | 0.00 | 66 | 1017.0 |
| 20260505023510 | 17 | 176 | 9.7 | 16.1 | 0.00 | 0.05 | 0.00 | 66 | 1017.0 |
| 20260505023012 | 16 | 168 | 4.8 | 14.5 | 0.00 | 0.05 | 0.00 | 67 | 1017.0 |
| 20260505022012 | 16 | 186 | 4.8 | 14.5 | 0.00 | 0.05 | 0.00 | 67 | 1017.0 |
| 20260505021510 | 16 | 176 | 8.0 | 16.1 | 0.00 | 0.05 | 0.00 | 67 | 1017.0 |
| 20260505021011 | 16 | 174 | 8.0 | 19.3 | 0.00 | 0.05 | 0.00 | 68 | 1017.0 |
| 20260505020511 | 16 | 169 | 9.7 | 24.1 | 0.00 | 0.05 | 0.00 | 68 | 1017.1 |
| 20260505015012 | 16 | 192 | 8.0 | 11.3 | 0.00 | 0.05 | 0.00 | 68 | 1017.1 |
| 20260505014511 | 16 | 149 | 9.7 | 19.3 | 0.00 | 0.05 | 0.00 | 70 | 1017.1 |
| 20260505014011 | 16 | 172 | 8.0 | 19.3 | 0.00 | 0.05 | 0.00 | 71 | 1017.1 |
| 20260505013510 | 16 | 172 | 6.4 | 14.5 | 0.00 | 0.05 | 0.00 | 71 | 1017.2 |
| 20260505012510 | 16 | 173 | 9.7 | 19.3 | 0.00 | 0.05 | 0.00 | 72 | 1017.3 |
| 20260505012011 | 15 | 168 | 9.7 | 19.3 | 0.00 | 0.05 | 0.00 | 72 | 1017.3 |
| 20260505011011 | 15 | 191 | 8.0 | 19.3 | 0.00 | 0.05 | 0.00 | 74 | 1017.3 |
| 20260505010510 | 15 | 155 | 8.0 | 16.1 | 0.00 | 0.05 | 0.00 | 74 | 1017.3 |
| 20260505010012 | 15 | 165 | 9.7 | 14.5 | 0.00 | 0.05 | 0.00 | 75 | 1017.2 |
| 20260505005510 | 15 | 160 | 8.0 | 16.1 | 0.00 | 0.05 | 0.00 | 74 | 1017.2 |
| 20260505005011 | 15 | 188 | 8.0 | 12.9 | 0.00 | 0.05 | 0.00 | 75 | 1017.1 |
| 20260505004509 | 15 | 162 | 9.7 | 19.3 | 0.00 | 0.05 | 0.00 | 75 | 1017.1 |
| 20260505004011 | 15 | 176 | 8.0 | 14.5 | 0.00 | 0.05 | 0.00 | 75 | 1017.0 |
| 20260505003510 | 15 | 174 | 6.4 | 12.9 | 0.00 | 0.05 | 0.00 | 75 | 1017.0 |
| 20260505002510 | 15 | 172 | 8.0 | 14.5 | 0.00 | 0.05 | 0.00 | 76 | 1016.8 |
| 20260505002011 | 15 | 178 | 4.8 | 11.3 | 0.00 | 0.05 | 0.00 | 76 | 1016.8 |
| 20260505001510 | 15 | 178 | 8.0 | 16.1 | 0.00 | 0.05 | 0.00 | 76 | 1016.7 |
| 20260505001011 | 15 | 165 | 6.4 | 12.9 | 0.00 | 0.05 | 0.00 | 76 | 1016.7 |
| 20260505000510 | 15 | 177 | 8.0 | 14.5 | 0.00 | 0.05 | 0.00 | 76 | 1016.6 |
| 20260504235510 | 15 | 164 | 4.8 | 11.3 | 0.00 | 0.05 | 0.00 | 76 | 1016.6 |
| 20260504234510 | 15 | 168 | 8.0 | 16.1 | 0.00 | 0.05 | 0.00 | 75 | 1016.5 |
| 20260504234011 | 15 | 181 | 8.0 | 14.5 | 0.00 | 0.05 | 0.00 | 75 | 1016.5 |
| 20260504233510 | 15 | 165 | 8.0 | 14.5 | 0.00 | 0.05 | 0.00 | 75 | 1016.4 |
| 20260504233011 | 15 | 176 | 8.0 | 12.9 | 0.00 | 0.05 | 0.00 | 75 | 1016.3 |
| 20260504232510 | 15 | 171 | 8.0 | 16.1 | 0.00 | 0.05 | 0.00 | 76 | 1016.3 |
| 20260504232012 | 15 | 160 | 6.4 | 14.5 | 0.00 | 0.05 | 0.00 | 77 | 1016.3 |
| 20260504231011 | 15 | 162 | 8.0 | 19.3 | 0.00 | 0.05 | 0.00 | 81 | 1016.1 |
| 20260504230510 | 14 | 214 | 4.8 | 12.9 | 0.00 | 0.05 | 0.00 | 81 | 1016.1 |
| 20260504225510 | 14 | 183 | 3.2 | 9.7 | 0.00 | 0.05 | 0.00 | 81 | 1016.1 |
| 20260504224510 | 14 | 182 | 3.2 | 14.5 | 0.00 | 0.05 | 0.00 | 82 | 1016.0 |
| 20260504224012 | 14 | 45 | 6.4 | 12.9 | 0.00 | 0.05 | 0.00 | 83 | 1016.0 |
| 20260504222510 | 13 | 185 | 8.0 | 19.3 | 0.00 | 0.05 | 0.00 | 84 | 1015.6 |
| 20260504222011 | 13 | 136 | 6.4 | 12.9 | 0.00 | 0.05 | 0.00 | 84 | 1015.6 |
| 20260504220510 | 13 | 176 | 3.2 | 8.0 | 0.00 | 0.05 | 0.00 | 84 | 1015.2 |
| 20260504215510 | 13 | 181 | 3.2 | 12.9 | 0.00 | 0.05 | 0.00 | 85 | 1015.1 |
| 20260504215011 | 13 | 187 | 4.8 | 11.3 | 0.00 | 0.05 | 0.00 | 85 | 1015.0 |
| 20260504214510 | 13 | 194 | 8.0 | 14.5 | 0.00 | 0.05 | 0.00 | 85 | 1014.9 |
| 20260504214012 | 13 | 169 | 6.4 | 14.5 | 0.00 | 0.05 | 0.00 | 85 | 1014.8 |
| 20260504213510 | 13 | 190 | 8.0 | 14.5 | 0.00 | 0.05 | 0.00 | 85 | 1014.7 |
| 20260504213012 | 13 | 190 | 3.2 | 14.5 | 0.00 | 0.05 | 0.00 | 85 | 1014.5 |
| 20260504212011 | 13 | 186 | 3.2 | 12.9 | 0.00 | 0.05 | 0.00 | 85 | 1014.4 |
| 20260504211510 | 13 | 186 | 4.8 | 11.3 | 0.00 | 0.05 | 0.00 | 85 | 1014.3 |
| 20260504211011 | 13 | 185 | 6.4 | 9.7 | 0.00 | 0.05 | 0.00 | 85 | 1014.3 |
| 20260504210012 | 13 | 178 | 4.8 | 11.3 | 0.00 | 0.05 | 0.00 | 84 | 1014.2 |
| 20260504205509 | 13 | 170 | 4.8 | 11.3 | 0.00 | 0.05 | 0.00 | 84 | 1014.2 |
| 20260504205011 | 13 | 183 | 4.8 | 14.5 | 0.00 | 0.05 | 0.00 | 84 | 1014.1 |
| 20260504204510 | 13 | 180 | 6.4 | 12.9 | 0.00 | 0.05 | 0.00 | 84 | 1014.0 |
| 20260504204011 | 13 | 200 | 4.8 | 12.9 | 0.00 | 0.05 | 0.00 | 84 | 1014.0 |
| 20260504203510 | 13 | 186 | 8.0 | 11.3 | 0.00 | 0.05 | 0.00 | 83 | 1013.8 |
| 20260504203011 | 13 | 173 | 3.2 | 11.3 | 0.00 | 0.05 | 0.00 | 83 | 1013.7 |
| 20260504201509 | 13 | 166 | 6.4 | 11.3 | 0.00 | 0.05 | 0.00 | 83 | 1013.4 |
| 20260504201011 | 13 | 185 | 4.8 | 8.0 | 0.00 | 0.05 | 0.00 | 83 | 1013.3 |
| 20260504200510 | 13 | 168 | 6.4 | 12.9 | 0.00 | 0.05 | 0.00 | 82 | 1013.3 |
| 20260504200012 | 13 | 180 | 4.8 | 12.9 | 0.00 | 0.05 | 0.00 | 82 | 1013.2 |
| 20260504195510 | 13 | 179 | 4.8 | 9.7 | 0.00 | 0.05 | 0.00 | 82 | 1013.1 |
| 20260504195011 | 13 | 184 | 4.8 | 11.3 | 0.00 | 0.05 | 0.00 | 81 | 1013.0 |
| 20260504194011 | 13 | 180 | 4.8 | 11.3 | 0.00 | 0.05 | 0.00 | 82 | 1013.1 |
| 20260504193510 | 13 | 177 | 6.4 | 12.9 | 0.00 | 0.05 | 0.00 | 82 | 1013.0 |
| 20260504193011 | 13 | 171 | 4.8 | 11.3 | 0.00 | 0.05 | 0.00 | 82 | 1013.0 |
| 20260504192510 | 13 | 186 | 4.8 | 19.3 | 0.00 | 0.05 | 0.00 | 81 | 1013.0 |
| 20260504192010 | 13 | 171 | 8.0 | 19.3 | 0.00 | 0.05 | 0.00 | 81 | 1012.9 |
| 20260504190510 | 13 | 173 | 4.8 | 16.1 | 0.00 | 0.05 | 0.00 | 81 | 1012.6 |
| 20260504190012 | 13 | 181 | 8.0 | 16.1 | 0.00 | 0.05 | 0.00 | 81 | 1012.6 |
| 20260504185510 | 13 | 166 | 3.2 | 8.0 | 0.00 | 0.05 | 0.00 | 81 | 1012.5 |
| 20260504184011 | 13 | 191 | 6.4 | 16.1 | 0.00 | 0.05 | 0.00 | 81 | 1012.3 |
| 20260504183509 | 13 | 176 | 6.4 | 11.3 | 0.00 | 0.05 | 0.00 | 81 | 1012.3 |
| 20260504183011 | 13 | 170 | 8.0 | 14.5 | 0.00 | 0.05 | 0.00 | 80 | 1012.2 |
| 20260504182509 | 13 | 191 | 6.4 | 12.9 | 0.00 | 0.05 | 0.00 | 80 | 1012.1 |
| 20260504181510 | 13 | 181 | 6.4 | 14.5 | 0.00 | 0.05 | 0.00 | 80 | 1012.1 |
| 20260504181011 | 13 | 173 | 6.4 | 16.1 | 0.00 | 0.05 | 0.00 | 80 | 1012.0 |
| 20260504180510 | 13 | 176 | 4.8 | 12.9 | 0.00 | 0.05 | 0.00 | 79 | 1011.9 |
| 20260504180013 | 13 | 170 | 8.0 | 19.3 | 0.00 | 0.05 | 0.00 | 79 | 1011.8 |
| 20260504175510 | 13 | 175 | 6.4 | 14.5 | 0.00 | 0.05 | 0.00 | 79 | 1011.8 |
| 20260504175011 | 13 | 182 | 8.0 | 12.9 | 0.00 | 0.05 | 0.00 | 79 | 1011.8 |
| 20260504174509 | 14 | 176 | 4.8 | 12.9 | 0.00 | 0.05 | 0.00 | 79 | 1011.7 |
| 20260504174011 | 14 | 174 | 9.7 | 19.3 | 0.00 | 0.05 | 0.00 | 78 | 1011.7 |
| 20260504173509 | 14 | 173 | 8.0 | 19.3 | 0.00 | 0.05 | 0.00 | 78 | 1011.7 |
| 20260504173012 | 14 | 171 | 8.0 | 20.9 | 0.00 | 0.05 | 0.00 | 78 | 1011.7 |
| 20260504172509 | 14 | 180 | 8.0 | 20.9 | 0.00 | 0.05 | 0.00 | 77 | 1011.6 |
| 20260504172011 | 14 | 178 | 9.7 | 16.1 | 0.00 | 0.05 | 0.00 | 77 | 1011.6 |
| 20260504171511 | 14 | 177 | 8.0 | 16.1 | 0.00 | 0.05 | 0.00 | 77 | 1011.4 |
| 20260504170510 | 14 | 180 | 8.0 | 20.9 | 0.00 | 0.05 | 0.00 | 76 | 1011.3 |